sensor_id;sensor_type;location;lat;lon;timestamp;P1;durP1;ratioP1;P2;durP2;ratioP2
583;SDS011;27024;54.068;12.116;2023-01-23T00:01:05;5.25;;;2.55;;
583;SDS011;27024;54.068;12.116;2023-01-23T00:03:33;5.90;;;3.05;;
583;SDS011;27024;54.068;12.116;2023-01-23T00:06:02;5.70;;;3.05;;
583;SDS011;27024;54.068;12.116;2023-01-23T00:08:34;6.60;;;3.10;;
583;SDS011;27024;54.068;12.116;2023-01-23T00:11:05;7.25;;;3.53;;
583;SDS011;27024;54.068;12.116;2023-01-23T00:13:33;6.30;;;2.88;;
583;SDS011;27024;54.068;12.116;2023-01-23T00:16:04;6.82;;;2.88;;
583;SDS011;27024;54.068;12.116;2023-01-23T00:18:32;8.50;;;3.30;;
583;SDS011;27024;54.068;12.116;2023-01-23T00:21:03;6.85;;;3.15;;
583;SDS011;27024;54.068;12.116;2023-01-23T00:23:31;7.07;;;3.47;;
583;SDS011;27024;54.068;12.116;2023-01-23T00:26:02;11.27;;;4.15;;
583;SDS011;27024;54.068;12.116;2023-01-23T00:28:33;6.80;;;3.67;;
583;SDS011;27024;54.068;12.116;2023-01-23T00:31:04;8.07;;;3.83;;
583;SDS011;27024;54.068;12.116;2023-01-23T00:33:53;8.20;;;3.65;;
583;SDS011;27024;54.068;12.116;2023-01-23T00:36:24;6.20;;;3.50;;
583;SDS011;27024;54.068;12.116;2023-01-23T00:38:54;7.70;;;3.60;;
583;SDS011;27024;54.068;12.116;2023-01-23T00:41:22;8.10;;;3.90;;
583;SDS011;27024;54.068;12.116;2023-01-23T00:43:49;8.27;;;3.63;;
583;SDS011;27024;54.068;12.116;2023-01-23T00:46:18;9.27;;;3.80;;
583;SDS011;27024;54.068;12.116;2023-01-23T00:48:46;7.72;;;3.42;;
583;SDS011;27024;54.068;12.116;2023-01-23T00:51:13;7.20;;;3.72;;
583;SDS011;27024;54.068;12.116;2023-01-23T00:53:40;9.30;;;3.90;;
583;SDS011;27024;54.068;12.116;2023-01-23T00:56:07;8.82;;;4.03;;
583;SDS011;27024;54.068;12.116;2023-01-23T00:58:34;8.65;;;3.58;;
583;SDS011;27024;54.068;12.116;2023-01-23T01:01:01;7.85;;;3.90;;
583;SDS011;27024;54.068;12.116;2023-01-23T01:03:28;8.57;;;3.65;;
583;SDS011;27024;54.068;12.116;2023-01-23T01:05:55;8.18;;;3.63;;
583;SDS011;27024;54.068;12.116;2023-01-23T01:08:22;7.72;;;3.60;;
583;SDS011;27024;54.068;12.116;2023-01-23T01:10:48;7.10;;;3.33;;
583;SDS011;27024;54.068;12.116;2023-01-23T01:13:15;7.25;;;3.63;;
583;SDS011;27024;54.068;12.116;2023-01-23T01:15:50;9.20;;;4.13;;
583;SDS011;27024;54.068;12.116;2023-01-23T01:18:18;8.15;;;3.72;;
583;SDS011;27024;54.068;12.116;2023-01-23T01:20:46;8.57;;;4.10;;
583;SDS011;27024;54.068;12.116;2023-01-23T01:23:13;8.02;;;4.18;;
583;SDS011;27024;54.068;12.116;2023-01-23T01:25:41;8.57;;;3.85;;
583;SDS011;27024;54.068;12.116;2023-01-23T01:28:07;8.23;;;4.25;;
583;SDS011;27024;54.068;12.116;2023-01-23T01:30:35;8.70;;;4.47;;
583;SDS011;27024;54.068;12.116;2023-01-23T01:33:02;9.40;;;4.10;;
583;SDS011;27024;54.068;12.116;2023-01-23T01:35:29;8.32;;;3.92;;
583;SDS011;27024;54.068;12.116;2023-01-23T01:37:56;9.25;;;4.03;;
583;SDS011;27024;54.068;12.116;2023-01-23T01:40:25;10.80;;;4.68;;
583;SDS011;27024;54.068;12.116;2023-01-23T01:42:57;8.60;;;4.18;;
583;SDS011;27024;54.068;12.116;2023-01-23T01:53:48;11.15;;;4.93;;
583;SDS011;27024;54.068;12.116;2023-01-23T01:56:20;10.55;;;5.00;;
583;SDS011;27024;54.068;12.116;2023-01-23T01:58:48;10.65;;;5.20;;
583;SDS011;27024;54.068;12.116;2023-01-23T02:01:17;9.98;;;4.63;;
583;SDS011;27024;54.068;12.116;2023-01-23T02:03:51;9.30;;;4.72;;
583;SDS011;27024;54.068;12.116;2023-01-23T02:06:18;11.07;;;4.82;;
583;SDS011;27024;54.068;12.116;2023-01-23T02:11:23;9.05;;;4.43;;
583;SDS011;27024;54.068;12.116;2023-01-23T02:13:50;8.98;;;5.15;;
583;SDS011;27024;54.068;12.116;2023-01-23T02:16:23;8.80;;;4.82;;
583;SDS011;27024;54.068;12.116;2023-01-23T02:18:56;9.95;;;4.72;;
583;SDS011;27024;54.068;12.116;2023-01-23T02:21:26;10.80;;;5.03;;
583;SDS011;27024;54.068;12.116;2023-01-23T02:26:46;9.60;;;4.88;;
583;SDS011;27024;54.068;12.116;2023-01-23T02:29:14;9.80;;;4.85;;
583;SDS011;27024;54.068;12.116;2023-01-23T02:31:44;11.77;;;5.57;;
583;SDS011;27024;54.068;12.116;2023-01-23T02:34:12;9.57;;;4.82;;
583;SDS011;27024;54.068;12.116;2023-01-23T02:36:40;9.70;;;5.30;;
583;SDS011;27024;54.068;12.116;2023-01-23T02:39:11;10.55;;;5.75;;
583;SDS011;27024;54.068;12.116;2023-01-23T02:41:50;10.60;;;5.53;;
583;SDS011;27024;54.068;12.116;2023-01-23T02:44:22;11.00;;;5.57;;
583;SDS011;27024;54.068;12.116;2023-01-23T02:46:55;12.82;;;6.13;;
583;SDS011;27024;54.068;12.116;2023-01-23T02:49:27;11.07;;;5.53;;
583;SDS011;27024;54.068;12.116;2023-01-23T02:51:54;11.40;;;5.80;;
583;SDS011;27024;54.068;12.116;2023-01-23T02:54:21;12.05;;;5.63;;
583;SDS011;27024;54.068;12.116;2023-01-23T02:56:49;10.95;;;5.32;;
583;SDS011;27024;54.068;12.116;2023-01-23T02:59:16;11.82;;;6.07;;
583;SDS011;27024;54.068;12.116;2023-01-23T03:02:01;11.80;;;5.80;;
583;SDS011;27024;54.068;12.116;2023-01-23T03:04:29;12.88;;;5.43;;
583;SDS011;27024;54.068;12.116;2023-01-23T03:06:56;11.63;;;6.38;;
583;SDS011;27024;54.068;12.116;2023-01-23T03:09:24;13.73;;;6.13;;
583;SDS011;27024;54.068;12.116;2023-01-23T03:11:51;12.13;;;6.22;;
583;SDS011;27024;54.068;12.116;2023-01-23T03:14:19;11.38;;;6.43;;
583;SDS011;27024;54.068;12.116;2023-01-23T03:16:48;12.52;;;6.18;;
583;SDS011;27024;54.068;12.116;2023-01-23T03:19:20;12.95;;;6.43;;
583;SDS011;27024;54.068;12.116;2023-01-23T03:21:49;12.88;;;6.70;;
583;SDS011;27024;54.068;12.116;2023-01-23T03:24:17;13.95;;;6.47;;
583;SDS011;27024;54.068;12.116;2023-01-23T03:26:45;13.85;;;6.63;;
583;SDS011;27024;54.068;12.116;2023-01-23T03:29:14;13.25;;;6.05;;
583;SDS011;27024;54.068;12.116;2023-01-23T03:32:00;12.95;;;6.20;;
583;SDS011;27024;54.068;12.116;2023-01-23T03:34:27;12.25;;;6.13;;
583;SDS011;27024;54.068;12.116;2023-01-23T03:36:55;11.57;;;5.95;;
583;SDS011;27024;54.068;12.116;2023-01-23T03:39:22;11.93;;;6.07;;
583;SDS011;27024;54.068;12.116;2023-01-23T03:42:07;11.45;;;5.93;;
583;SDS011;27024;54.068;12.116;2023-01-23T03:44:34;12.68;;;6.53;;
583;SDS011;27024;54.068;12.116;2023-01-23T03:47:01;12.93;;;7.00;;
583;SDS011;27024;54.068;12.116;2023-01-23T03:49:28;12.15;;;6.45;;
583;SDS011;27024;54.068;12.116;2023-01-23T03:51:55;12.88;;;6.57;;
583;SDS011;27024;54.068;12.116;2023-01-23T03:54:22;11.50;;;6.53;;
583;SDS011;27024;54.068;12.116;2023-01-23T03:56:49;12.90;;;6.60;;
583;SDS011;27024;54.068;12.116;2023-01-23T03:59:16;11.98;;;6.68;;
583;SDS011;27024;54.068;12.116;2023-01-23T04:01:43;13.05;;;7.20;;
583;SDS011;27024;54.068;12.116;2023-01-23T04:04:10;13.85;;;6.90;;
583;SDS011;27024;54.068;12.116;2023-01-23T04:06:36;15.18;;;6.38;;
583;SDS011;27024;54.068;12.116;2023-01-23T04:09:03;12.40;;;6.70;;
583;SDS011;27024;54.068;12.116;2023-01-23T04:11:30;13.07;;;7.15;;
583;SDS011;27024;54.068;12.116;2023-01-23T04:13:57;14.05;;;6.55;;
583;SDS011;27024;54.068;12.116;2023-01-23T04:16:24;14.32;;;7.00;;
583;SDS011;27024;54.068;12.116;2023-01-23T04:18:53;13.30;;;7.72;;
583;SDS011;27024;54.068;12.116;2023-01-23T04:21:20;14.60;;;7.25;;
583;SDS011;27024;54.068;12.116;2023-01-23T04:23:47;15.48;;;7.28;;
583;SDS011;27024;54.068;12.116;2023-01-23T04:26:13;15.35;;;7.47;;
583;SDS011;27024;54.068;12.116;2023-01-23T04:28:40;14.73;;;7.45;;
583;SDS011;27024;54.068;12.116;2023-01-23T04:31:07;15.15;;;7.53;;
583;SDS011;27024;54.068;12.116;2023-01-23T04:33:35;14.82;;;7.50;;
583;SDS011;27024;54.068;12.116;2023-01-23T04:36:03;15.05;;;7.05;;
583;SDS011;27024;54.068;12.116;2023-01-23T04:38:31;14.98;;;7.45;;
583;SDS011;27024;54.068;12.116;2023-01-23T04:40:59;17.73;;;8.18;;
583;SDS011;27024;54.068;12.116;2023-01-23T04:43:26;16.92;;;7.53;;
583;SDS011;27024;54.068;12.116;2023-01-23T04:45:53;17.25;;;7.50;;
583;SDS011;27024;54.068;12.116;2023-01-23T04:48:21;17.23;;;7.97;;
583;SDS011;27024;54.068;12.116;2023-01-23T04:50:48;16.65;;;7.55;;
583;SDS011;27024;54.068;12.116;2023-01-23T04:53:16;19.23;;;8.00;;
583;SDS011;27024;54.068;12.116;2023-01-23T04:55:45;15.20;;;7.18;;
583;SDS011;27024;54.068;12.116;2023-01-23T04:58:12;17.85;;;7.90;;
583;SDS011;27024;54.068;12.116;2023-01-23T05:00:39;16.42;;;8.45;;
583;SDS011;27024;54.068;12.116;2023-01-23T05:03:06;18.50;;;8.35;;
583;SDS011;27024;54.068;12.116;2023-01-23T05:05:32;19.08;;;8.65;;
583;SDS011;27024;54.068;12.116;2023-01-23T05:07:59;17.50;;;8.80;;
583;SDS011;27024;54.068;12.116;2023-01-23T05:10:26;19.65;;;8.18;;
583;SDS011;27024;54.068;12.116;2023-01-23T05:12:53;19.08;;;8.52;;
583;SDS011;27024;54.068;12.116;2023-01-23T05:15:20;20.30;;;9.45;;
583;SDS011;27024;54.068;12.116;2023-01-23T05:17:47;19.88;;;8.75;;
583;SDS011;27024;54.068;12.116;2023-01-23T05:20:14;17.63;;;7.80;;
583;SDS011;27024;54.068;12.116;2023-01-23T05:22:41;17.55;;;8.10;;
583;SDS011;27024;54.068;12.116;2023-01-23T05:25:21;17.73;;;7.68;;
583;SDS011;27024;54.068;12.116;2023-01-23T05:27:50;19.77;;;8.27;;
583;SDS011;27024;54.068;12.116;2023-01-23T05:30:17;16.40;;;7.38;;
583;SDS011;27024;54.068;12.116;2023-01-23T05:32:47;16.48;;;8.75;;
583;SDS011;27024;54.068;12.116;2023-01-23T05:35:14;18.48;;;7.97;;
583;SDS011;27024;54.068;12.116;2023-01-23T05:37:42;19.67;;;8.43;;
583;SDS011;27024;54.068;12.116;2023-01-23T05:40:09;22.40;;;8.10;;
583;SDS011;27024;54.068;12.116;2023-01-23T05:42:38;21.55;;;10.05;;
583;SDS011;27024;54.068;12.116;2023-01-23T05:45:05;20.52;;;8.27;;
583;SDS011;27024;54.068;12.116;2023-01-23T05:47:32;25.25;;;9.02;;
583;SDS011;27024;54.068;12.116;2023-01-23T05:49:59;22.27;;;8.35;;
583;SDS011;27024;54.068;12.116;2023-01-23T05:52:26;20.65;;;9.27;;
583;SDS011;27024;54.068;12.116;2023-01-23T05:54:53;21.33;;;9.35;;
583;SDS011;27024;54.068;12.116;2023-01-23T05:57:20;24.85;;;9.50;;
583;SDS011;27024;54.068;12.116;2023-01-23T05:59:47;24.25;;;9.60;;
583;SDS011;27024;54.068;12.116;2023-01-23T06:02:14;25.15;;;9.35;;
583;SDS011;27024;54.068;12.116;2023-01-23T06:04:41;27.20;;;9.13;;
583;SDS011;27024;54.068;12.116;2023-01-23T06:07:12;26.77;;;10.25;;
583;SDS011;27024;54.068;12.116;2023-01-23T06:09:39;28.27;;;10.02;;
583;SDS011;27024;54.068;12.116;2023-01-23T06:12:07;27.55;;;9.77;;
583;SDS011;27024;54.068;12.116;2023-01-23T06:14:34;29.48;;;9.75;;
583;SDS011;27024;54.068;12.116;2023-01-23T06:17:02;25.67;;;9.95;;
583;SDS011;27024;54.068;12.116;2023-01-23T06:19:29;28.00;;;10.30;;
583;SDS011;27024;54.068;12.116;2023-01-23T06:21:56;34.15;;;10.98;;
583;SDS011;27024;54.068;12.116;2023-01-23T06:24:23;30.08;;;9.88;;
583;SDS011;27024;54.068;12.116;2023-01-23T06:26:49;29.05;;;10.32;;
583;SDS011;27024;54.068;12.116;2023-01-23T06:29:16;30.13;;;10.50;;
583;SDS011;27024;54.068;12.116;2023-01-23T06:31:43;31.45;;;10.82;;
583;SDS011;27024;54.068;12.116;2023-01-23T06:34:11;32.95;;;10.93;;
583;SDS011;27024;54.068;12.116;2023-01-23T06:36:39;29.23;;;10.52;;
583;SDS011;27024;54.068;12.116;2023-01-23T06:39:06;34.47;;;10.48;;
583;SDS011;27024;54.068;12.116;2023-01-23T06:41:34;29.45;;;9.88;;
583;SDS011;27024;54.068;12.116;2023-01-23T06:44:00;29.10;;;9.50;;
583;SDS011;27024;54.068;12.116;2023-01-23T06:46:27;27.30;;;10.57;;
583;SDS011;27024;54.068;12.116;2023-01-23T06:48:54;33.75;;;11.45;;
583;SDS011;27024;54.068;12.116;2023-01-23T06:51:21;32.10;;;10.60;;
583;SDS011;27024;54.068;12.116;2023-01-23T06:53:47;35.92;;;10.63;;
583;SDS011;27024;54.068;12.116;2023-01-23T06:56:14;30.23;;;10.45;;
583;SDS011;27024;54.068;12.116;2023-01-23T06:58:44;23.30;;;9.25;;
583;SDS011;27024;54.068;12.116;2023-01-23T07:01:12;32.85;;;10.68;;
583;SDS011;27024;54.068;12.116;2023-01-23T07:03:41;28.95;;;11.02;;
583;SDS011;27024;54.068;12.116;2023-01-23T07:06:10;32.40;;;9.77;;
583;SDS011;27024;54.068;12.116;2023-01-23T07:08:38;26.80;;;9.38;;
583;SDS011;27024;54.068;12.116;2023-01-23T07:11:06;30.55;;;10.60;;
583;SDS011;27024;54.068;12.116;2023-01-23T07:13:33;28.90;;;10.55;;
583;SDS011;27024;54.068;12.116;2023-01-23T07:16:01;28.90;;;9.75;;
583;SDS011;27024;54.068;12.116;2023-01-23T07:18:28;28.77;;;10.82;;
583;SDS011;27024;54.068;12.116;2023-01-23T07:20:55;29.08;;;10.88;;
583;SDS011;27024;54.068;12.116;2023-01-23T07:23:22;26.45;;;10.00;;
583;SDS011;27024;54.068;12.116;2023-01-23T07:25:49;28.02;;;10.10;;
583;SDS011;27024;54.068;12.116;2023-01-23T07:28:16;28.67;;;9.43;;
583;SDS011;27024;54.068;12.116;2023-01-23T07:30:43;29.33;;;10.98;;
583;SDS011;27024;54.068;12.116;2023-01-23T07:33:10;23.90;;;9.75;;
583;SDS011;27024;54.068;12.116;2023-01-23T07:35:38;25.33;;;9.73;;
583;SDS011;27024;54.068;12.116;2023-01-23T07:38:05;26.98;;;10.27;;
583;SDS011;27024;54.068;12.116;2023-01-23T07:40:31;24.85;;;9.80;;
583;SDS011;27024;54.068;12.116;2023-01-23T07:42:58;22.75;;;9.35;;
583;SDS011;27024;54.068;12.116;2023-01-23T07:45:25;22.15;;;9.32;;
583;SDS011;27024;54.068;12.116;2023-01-23T07:47:52;24.20;;;9.68;;
583;SDS011;27024;54.068;12.116;2023-01-23T07:50:19;26.48;;;9.85;;
583;SDS011;27024;54.068;12.116;2023-01-23T07:52:46;23.88;;;10.07;;
583;SDS011;27024;54.068;12.116;2023-01-23T07:55:13;24.50;;;9.50;;
583;SDS011;27024;54.068;12.116;2023-01-23T07:57:39;24.50;;;10.27;;
583;SDS011;27024;54.068;12.116;2023-01-23T08:00:08;24.13;;;9.13;;
583;SDS011;27024;54.068;12.116;2023-01-23T08:02:36;25.20;;;10.07;;
583;SDS011;27024;54.068;12.116;2023-01-23T08:05:03;24.45;;;10.25;;
583;SDS011;27024;54.068;12.116;2023-01-23T08:07:30;21.65;;;9.60;;
583;SDS011;27024;54.068;12.116;2023-01-23T08:09:57;25.92;;;9.70;;
583;SDS011;27024;54.068;12.116;2023-01-23T08:12:24;21.70;;;9.35;;
583;SDS011;27024;54.068;12.116;2023-01-23T08:14:51;24.30;;;9.93;;
583;SDS011;27024;54.068;12.116;2023-01-23T08:17:17;22.20;;;9.38;;
583;SDS011;27024;54.068;12.116;2023-01-23T08:19:44;23.42;;;9.93;;
583;SDS011;27024;54.068;12.116;2023-01-23T08:22:11;25.17;;;9.73;;
583;SDS011;27024;54.068;12.116;2023-01-23T08:24:38;19.13;;;9.98;;
583;SDS011;27024;54.068;12.116;2023-01-23T08:27:05;23.15;;;9.75;;
583;SDS011;27024;54.068;12.116;2023-01-23T08:29:32;18.33;;;8.48;;
583;SDS011;27024;54.068;12.116;2023-01-23T08:31:59;23.20;;;9.75;;
583;SDS011;27024;54.068;12.116;2023-01-23T08:34:26;23.15;;;10.30;;
583;SDS011;27024;54.068;12.116;2023-01-23T08:36:53;22.25;;;9.90;;
583;SDS011;27024;54.068;12.116;2023-01-23T08:39:20;22.30;;;9.90;;
583;SDS011;27024;54.068;12.116;2023-01-23T08:41:47;24.20;;;8.95;;
583;SDS011;27024;54.068;12.116;2023-01-23T08:44:13;20.65;;;9.18;;
583;SDS011;27024;54.068;12.116;2023-01-23T08:46:40;19.42;;;9.15;;
583;SDS011;27024;54.068;12.116;2023-01-23T08:49:08;23.40;;;9.52;;
583;SDS011;27024;54.068;12.116;2023-01-23T08:51:36;21.48;;;9.23;;
583;SDS011;27024;54.068;12.116;2023-01-23T08:54:03;20.00;;;9.55;;
583;SDS011;27024;54.068;12.116;2023-01-23T08:56:31;23.65;;;9.45;;
583;SDS011;27024;54.068;12.116;2023-01-23T08:58:58;20.88;;;9.00;;
583;SDS011;27024;54.068;12.116;2023-01-23T09:01:26;22.67;;;9.88;;
583;SDS011;27024;54.068;12.116;2023-01-23T09:03:53;24.70;;;10.13;;
583;SDS011;27024;54.068;12.116;2023-01-23T09:06:20;21.20;;;9.13;;
583;SDS011;27024;54.068;12.116;2023-01-23T09:08:48;22.73;;;10.25;;
583;SDS011;27024;54.068;12.116;2023-01-23T09:11:15;22.02;;;9.93;;
583;SDS011;27024;54.068;12.116;2023-01-23T09:13:44;21.95;;;9.05;;
583;SDS011;27024;54.068;12.116;2023-01-23T09:16:12;24.25;;;10.15;;
583;SDS011;27024;54.068;12.116;2023-01-23T09:18:39;20.77;;;9.20;;
583;SDS011;27024;54.068;12.116;2023-01-23T09:21:06;22.63;;;9.38;;
583;SDS011;27024;54.068;12.116;2023-01-23T09:23:37;21.85;;;9.38;;
583;SDS011;27024;54.068;12.116;2023-01-23T09:26:05;23.17;;;8.88;;
583;SDS011;27024;54.068;12.116;2023-01-23T09:28:34;23.92;;;9.55;;
583;SDS011;27024;54.068;12.116;2023-01-23T09:31:03;22.67;;;8.85;;
583;SDS011;27024;54.068;12.116;2023-01-23T09:33:33;23.30;;;8.98;;
583;SDS011;27024;54.068;12.116;2023-01-23T09:36:00;22.20;;;9.32;;
583;SDS011;27024;54.068;12.116;2023-01-23T09:38:27;22.13;;;10.23;;
583;SDS011;27024;54.068;12.116;2023-01-23T09:40:55;20.30;;;8.52;;
583;SDS011;27024;54.068;12.116;2023-01-23T09:46:16;19.88;;;9.02;;
583;SDS011;27024;54.068;12.116;2023-01-23T09:49:03;22.02;;;8.90;;
583;SDS011;27024;54.068;12.116;2023-01-23T09:51:43;20.38;;;8.93;;
583;SDS011;27024;54.068;12.116;2023-01-23T09:56:54;21.48;;;8.80;;
583;SDS011;27024;54.068;12.116;2023-01-23T09:59:37;20.25;;;9.18;;
583;SDS011;27024;54.068;12.116;2023-01-23T10:02:25;21.45;;;8.85;;
583;SDS011;27024;54.068;12.116;2023-01-23T10:04:52;20.55;;;8.82;;
583;SDS011;27024;54.068;12.116;2023-01-23T10:18:34;20.58;;;9.10;;
583;SDS011;27024;54.068;12.116;2023-01-23T10:27:25;20.50;;;8.65;;
583;SDS011;27024;54.068;12.116;2023-01-23T10:32:58;18.70;;;8.88;;
583;SDS011;27024;54.068;12.116;2023-01-23T10:35:52;15.70;;;7.80;;
583;SDS011;27024;54.068;12.116;2023-01-23T10:38:37;14.68;;;7.75;;
583;SDS011;27024;54.068;12.116;2023-01-23T10:41:12;21.20;;;7.93;;
583;SDS011;27024;54.068;12.116;2023-01-23T10:43:44;16.10;;;7.50;;
583;SDS011;27024;54.068;12.116;2023-01-23T10:48:40;17.83;;;8.30;;
583;SDS011;27024;54.068;12.116;2023-01-23T10:51:54;17.60;;;7.40;;
583;SDS011;27024;54.068;12.116;2023-01-23T10:57:00;19.23;;;7.72;;
583;SDS011;27024;54.068;12.116;2023-01-23T10:59:47;17.88;;;7.18;;
583;SDS011;27024;54.068;12.116;2023-01-23T11:02:26;19.60;;;7.90;;
583;SDS011;27024;54.068;12.116;2023-01-23T11:04:54;18.52;;;7.57;;
583;SDS011;27024;54.068;12.116;2023-01-23T11:07:22;18.85;;;7.93;;
583;SDS011;27024;54.068;12.116;2023-01-23T11:09:58;17.30;;;7.38;;
583;SDS011;27024;54.068;12.116;2023-01-23T11:12:28;14.82;;;6.97;;
583;SDS011;27024;54.068;12.116;2023-01-23T11:17:52;16.27;;;7.50;;
583;SDS011;27024;54.068;12.116;2023-01-23T11:20:37;15.88;;;7.38;;
583;SDS011;27024;54.068;12.116;2023-01-23T11:23:13;14.68;;;7.18;;
583;SDS011;27024;54.068;12.116;2023-01-23T11:25:43;17.30;;;7.43;;
583;SDS011;27024;54.068;12.116;2023-01-23T11:28:27;14.80;;;6.72;;
583;SDS011;27024;54.068;12.116;2023-01-23T11:31:04;18.13;;;6.78;;
583;SDS011;27024;54.068;12.116;2023-01-23T11:33:43;15.88;;;6.68;;
583;SDS011;27024;54.068;12.116;2023-01-23T11:39:00;15.60;;;6.72;;
583;SDS011;27024;54.068;12.116;2023-01-23T11:41:38;18.52;;;6.50;;
583;SDS011;27024;54.068;12.116;2023-01-23T11:44:12;20.45;;;7.50;;
583;SDS011;27024;54.068;12.116;2023-01-23T11:58:29;16.45;;;5.80;;
583;SDS011;27024;54.068;12.116;2023-01-23T12:01:29;17.10;;;6.55;;
583;SDS011;27024;54.068;12.116;2023-01-23T12:09:14;18.67;;;6.60;;
583;SDS011;27024;54.068;12.116;2023-01-23T12:11:55;18.23;;;6.68;;
583;SDS011;27024;54.068;12.116;2023-01-23T12:19:57;16.00;;;6.28;;
583;SDS011;27024;54.068;12.116;2023-01-23T12:22:57;16.30;;;6.32;;
583;SDS011;27024;54.068;12.116;2023-01-23T12:25:59;17.30;;;6.10;;
583;SDS011;27024;54.068;12.116;2023-01-23T12:31:31;15.20;;;6.40;;
583;SDS011;27024;54.068;12.116;2023-01-23T12:42:30;14.73;;;6.60;;
583;SDS011;27024;54.068;12.116;2023-01-23T12:47:43;15.43;;;6.07;;
583;SDS011;27024;54.068;12.116;2023-01-23T12:50:37;17.42;;;5.60;;
583;SDS011;27024;54.068;12.116;2023-01-23T12:53:18;17.20;;;5.85;;
583;SDS011;27024;54.068;12.116;2023-01-23T12:55:56;18.27;;;6.05;;
583;SDS011;27024;54.068;12.116;2023-01-23T12:58:28;14.32;;;5.55;;
583;SDS011;27024;54.068;12.116;2023-01-23T13:06:32;14.38;;;5.68;;
583;SDS011;27024;54.068;12.116;2023-01-23T13:14:45;17.33;;;6.03;;
583;SDS011;27024;54.068;12.116;2023-01-23T13:23:22;13.05;;;5.35;;
583;SDS011;27024;54.068;12.116;2023-01-23T13:26:22;17.38;;;5.40;;
583;SDS011;27024;54.068;12.116;2023-01-23T13:34:00;16.98;;;5.65;;
583;SDS011;27024;54.068;12.116;2023-01-23T13:36:40;14.48;;;5.60;;
583;SDS011;27024;54.068;12.116;2023-01-23T13:41:49;15.00;;;5.68;;
583;SDS011;27024;54.068;12.116;2023-01-23T13:52:55;15.32;;;6.10;;
583;SDS011;27024;54.068;12.116;2023-01-23T13:55:56;16.35;;;6.38;;
583;SDS011;27024;54.068;12.116;2023-01-23T13:58:56;15.63;;;6.25;;
583;SDS011;27024;54.068;12.116;2023-01-23T14:01:40;14.63;;;5.35;;
583;SDS011;27024;54.068;12.116;2023-01-23T14:05:03;19.20;;;6.53;;
583;SDS011;27024;54.068;12.116;2023-01-23T14:08:00;13.77;;;5.53;;
583;SDS011;27024;54.068;12.116;2023-01-23T14:13:27;13.45;;;5.68;;
583;SDS011;27024;54.068;12.116;2023-01-23T14:16:10;16.77;;;6.30;;
583;SDS011;27024;54.068;12.116;2023-01-23T14:18:54;16.75;;;6.53;;
583;SDS011;27024;54.068;12.116;2023-01-23T14:21:39;17.52;;;5.78;;
583;SDS011;27024;54.068;12.116;2023-01-23T14:24:47;17.63;;;6.32;;
583;SDS011;27024;54.068;12.116;2023-01-23T14:27:29;17.67;;;6.55;;
583;SDS011;27024;54.068;12.116;2023-01-23T14:30:17;13.15;;;5.35;;
583;SDS011;27024;54.068;12.116;2023-01-23T14:32:46;13.45;;;5.85;;
583;SDS011;27024;54.068;12.116;2023-01-23T14:35:24;17.33;;;6.10;;
583;SDS011;27024;54.068;12.116;2023-01-23T14:37:53;14.35;;;5.97;;
583;SDS011;27024;54.068;12.116;2023-01-23T14:40:23;14.02;;;5.82;;
583;SDS011;27024;54.068;12.116;2023-01-23T14:43:40;15.32;;;6.10;;
583;SDS011;27024;54.068;12.116;2023-01-23T14:45:55;13.65;;;5.22;;
583;SDS011;27024;54.068;12.116;2023-01-23T14:48:31;16.50;;;6.68;;
583;SDS011;27024;54.068;12.116;2023-01-23T14:51:36;15.27;;;6.13;;
583;SDS011;27024;54.068;12.116;2023-01-23T14:53:56;17.42;;;6.30;;
583;SDS011;27024;54.068;12.116;2023-01-23T14:56:29;18.25;;;6.25;;
583;SDS011;27024;54.068;12.116;2023-01-23T14:59:00;16.83;;;5.78;;
583;SDS011;27024;54.068;12.116;2023-01-23T15:01:29;16.35;;;6.25;;
583;SDS011;27024;54.068;12.116;2023-01-23T15:04:02;16.23;;;6.45;;
583;SDS011;27024;54.068;12.116;2023-01-23T15:06:31;16.75;;;6.03;;
583;SDS011;27024;54.068;12.116;2023-01-23T15:09:10;15.18;;;6.00;;
583;SDS011;27024;54.068;12.116;2023-01-23T15:11:41;16.00;;;6.28;;
583;SDS011;27024;54.068;12.116;2023-01-23T15:14:43;13.35;;;5.53;;
583;SDS011;27024;54.068;12.116;2023-01-23T15:17:06;17.13;;;5.78;;
583;SDS011;27024;54.068;12.116;2023-01-23T15:19:40;19.30;;;6.85;;
583;SDS011;27024;54.068;12.116;2023-01-23T15:22:15;13.43;;;5.95;;
583;SDS011;27024;54.068;12.116;2023-01-23T15:24:45;13.02;;;5.60;;
583;SDS011;27024;54.068;12.116;2023-01-23T15:29:50;15.13;;;6.43;;
583;SDS011;27024;54.068;12.116;2023-01-23T15:32:20;16.20;;;6.65;;
583;SDS011;27024;54.068;12.116;2023-01-23T15:34:51;16.67;;;6.35;;
583;SDS011;27024;54.068;12.116;2023-01-23T15:37:21;19.00;;;6.75;;
583;SDS011;27024;54.068;12.116;2023-01-23T15:39:57;17.85;;;6.63;;
583;SDS011;27024;54.068;12.116;2023-01-23T15:42:29;15.77;;;5.95;;
583;SDS011;27024;54.068;12.116;2023-01-23T15:44:57;15.07;;;6.38;;
583;SDS011;27024;54.068;12.116;2023-01-23T15:47:30;16.92;;;6.97;;
583;SDS011;27024;54.068;12.116;2023-01-23T15:49:57;15.75;;;6.20;;
583;SDS011;27024;54.068;12.116;2023-01-23T15:52:28;15.55;;;6.25;;
583;SDS011;27024;54.068;12.116;2023-01-23T15:55:00;17.77;;;6.32;;
583;SDS011;27024;54.068;12.116;2023-01-23T15:57:30;18.15;;;6.57;;
583;SDS011;27024;54.068;12.116;2023-01-23T15:59:57;16.60;;;7.05;;
583;SDS011;27024;54.068;12.116;2023-01-23T16:02:25;18.00;;;7.72;;
583;SDS011;27024;54.068;12.116;2023-01-23T16:04:58;18.65;;;7.47;;
583;SDS011;27024;54.068;12.116;2023-01-23T16:07:31;17.15;;;7.50;;
583;SDS011;27024;54.068;12.116;2023-01-23T16:10:01;18.55;;;7.47;;
583;SDS011;27024;54.068;12.116;2023-01-23T16:12:40;14.20;;;6.50;;
583;SDS011;27024;54.068;12.116;2023-01-23T16:15:15;16.52;;;6.70;;
583;SDS011;27024;54.068;12.116;2023-01-23T16:17:44;17.08;;;6.18;;
583;SDS011;27024;54.068;12.116;2023-01-23T16:20:19;16.88;;;6.68;;
583;SDS011;27024;54.068;12.116;2023-01-23T16:22:49;15.15;;;5.97;;
583;SDS011;27024;54.068;12.116;2023-01-23T16:25:21;19.73;;;7.28;;
583;SDS011;27024;54.068;12.116;2023-01-23T16:28:16;16.17;;;6.40;;
583;SDS011;27024;54.068;12.116;2023-01-23T16:30:46;17.60;;;6.53;;
583;SDS011;27024;54.068;12.116;2023-01-23T16:33:14;15.70;;;6.65;;
583;SDS011;27024;54.068;12.116;2023-01-23T16:35:41;36.53;;;10.70;;
583;SDS011;27024;54.068;12.116;2023-01-23T16:38:26;20.67;;;8.20;;
583;SDS011;27024;54.068;12.116;2023-01-23T16:40:54;16.33;;;6.57;;
583;SDS011;27024;54.068;12.116;2023-01-23T16:43:22;15.73;;;6.28;;
583;SDS011;27024;54.068;12.116;2023-01-23T16:45:49;16.38;;;7.05;;
583;SDS011;27024;54.068;12.116;2023-01-23T16:48:21;19.98;;;7.78;;
583;SDS011;27024;54.068;12.116;2023-01-23T16:50:59;15.20;;;6.53;;
583;SDS011;27024;54.068;12.116;2023-01-23T16:53:51;16.60;;;6.03;;
583;SDS011;27024;54.068;12.116;2023-01-23T16:56:27;14.55;;;7.10;;
583;SDS011;27024;54.068;12.116;2023-01-23T16:58:59;15.45;;;6.40;;
583;SDS011;27024;54.068;12.116;2023-01-23T17:01:26;15.68;;;7.22;;
583;SDS011;27024;54.068;12.116;2023-01-23T17:03:56;17.83;;;6.88;;
583;SDS011;27024;54.068;12.116;2023-01-23T17:06:25;14.13;;;6.43;;
583;SDS011;27024;54.068;12.116;2023-01-23T17:08:51;15.15;;;6.15;;
583;SDS011;27024;54.068;12.116;2023-01-23T17:11:20;14.27;;;7.30;;
583;SDS011;27024;54.068;12.116;2023-01-23T17:13:51;15.98;;;6.75;;
583;SDS011;27024;54.068;12.116;2023-01-23T17:16:23;15.35;;;6.75;;
583;SDS011;27024;54.068;12.116;2023-01-23T17:18:53;16.30;;;7.20;;